Aérodrome :
LOGIN :

S'inscrire | Disclaimer

   EN    FR    IT 

 










Légende :    VFR   VFR Marginal   IFR   IFR Intensif   IFR Très Intensif
Visi : 
Plafond : 
>= 8 km
>= 3000ft
5 à 8 km
1000 à 3000 ft
1500m à 5 km
500 à 1000 ft
800 à 1500m
200 à 500 ft
< 800m
< 200 ft
Symboles :   Orages  Brouillard  Fortes neiges  Fortes précipitations  Vent > 20 kt
SIGMETs :   Divers  Orages  Givrage  Turbulence  Onde Orograph.  Cendres Volcan.






- Altitude de l'aérodrome : 16 ft
- Code IATA : EAS


LESO - San Sebastian Fuenterrabia

DERNIER METAR :
  • 280300Z AUTO 20004KT 9999 SCT023 BKN050 BKN056 13/12 Q1017

METARs EXPIRÉS :
  • 280230Z AUTO VRB02KT 9999 SCT010 BKN050 13/12 Q1017
  • 280200Z AUTO VRB01KT 9999 SCT009 BKN047 14/13 Q1017
  • 280130Z AUTO VRB01KT 9999 SCT008 SCT048 15/13 Q1017
  • 280100Z AUTO VRB01KT 9999 SCT007 SCT049 15/11 Q1017
  • 280030Z AUTO 22004KT 170V240 9999 FEW048 SCT050 16/11 Q1016
  • 280000Z AUTO 22004KT 9999 OVC050 16/11 Q1016

TAF TAF LESO
Valide du 28 à 00h jusqu'au 29 à 00h UTC


272300Z 2800/2824 18006KT 9999 BKN050 TX18/2815Z TN11/2808Z
PROB30
TEMPO 2800/2812 RA



MET'MAP, la Météo Aéronautique d'un coup d'oeil ! - Copyright ORBIFLY Décembre 2007 - Disclaimer

ORBIFLY MET'MAP TEAM :

Programmation & Développement : Alexandra Zaïnal
Sur une idée originale de : Baudouin d'Aumeries
Assistance à la programmation : Marc-Olivier Méhu
Soutien technique & logistique : Manuel Goepfert

Contact : metmap@orbifly.com




SOURCES & CREDITS :

   NOAA